Time;durP1;ratioP1;P1;durP2;ratioP2;P2;SDS_P1;SDS_P2;PMS_P1;PMS_P2;Temp;Humidity;BMP_temperature;BMP_pressure;BME280_temperature;BME280_humidity;BME280_pressure;Samples;Min_cycle;Max_cycle;Signal;HPM_P1;HPM_P2
2023/08/20 00:00:22;;;;;;;2.17;1.67;;;22.50;71.70;;;;;;5073809;28;20132;-36
2023/08/20 00:02:49;;;;;;;3.05;1.85;;;;;;;;;;5073778;28;20095;-39
2023/08/20 00:05:17;;;;;;;3.03;1.90;;;21.40;73.20;;;;;;5073842;28;20135;-36
2023/08/20 00:07:44;;;;;;;2.67;1.88;;;22.70;88.10;;;;;;5074087;28;20127;-39
2023/08/20 00:10:11;;;;;;;2.70;2.00;;;22.30;76.30;;;;;;5073008;28;20101;-36
2023/08/20 00:12:38;;;;;;;3.55;1.90;;;;;;;;;;5073116;28;20708;-39
2023/08/20 00:15:07;;;;;;;3.15;1.80;;;22.50;87.50;;;;;;5073872;28;20481;-37
2023/08/20 00:17:34;;;;;;;4.20;1.83;;;22.40;72.40;;;;;;5073851;28;20115;-38
2023/08/20 00:20:04;;;;;;;2.63;1.70;;;22.40;71.60;;;;;;5073941;28;20132;-38
2023/08/20 00:22:30;;;;;;;3.38;1.58;;;21.40;72.70;;;;;;5073556;28;20079;-36
2023/08/20 00:24:58;;;;;;;2.90;1.70;;;22.10;88.20;;;;;;5072824;28;20533;-39
2023/08/20 00:27:25;;;;;;;3.35;1.80;;;;;;;;;;5052558;28;20096;-36
2023/08/20 00:29:51;;;;;;;2.45;1.75;;;21.50;87.00;;;;;;5053627;28;20136;-39
2023/08/20 00:32:19;;;;;;;3.53;1.90;;;23.30;88.00;;;;;;5052317;28;20485;-40
2023/08/20 00:34:46;;;;;;;3.33;1.63;;;21.50;87.40;;;;;;5053295;28;20141;-40
2023/08/20 00:37:13;;;;;;;2.50;1.77;;;;;;;;;;5064474;28;20460;-36
2023/08/20 00:39:40;;;;;;;2.20;1.60;;;;;;;;;;5073318;28;20153;-39
2023/08/20 00:42:07;;;;;;;3.95;1.95;;;22.30;71.40;;;;;;5055520;28;20128;-35
2023/08/20 00:44:34;;;;;;;3.38;1.70;;;23.10;87.80;;;;;;5059303;28;20052;-40
2023/08/20 00:47:01;;;;;;;2.05;1.50;;;23.10;78.40;;;;;;5073129;28;20127;-39
2023/08/20 00:49:29;;;;;;;2.55;1.48;;;22.10;78.70;;;;;;5072797;28;20052;-39
2023/08/20 00:51:56;;;;;;;1.75;1.40;;;;;;;;;;5072789;28;20136;-37
2023/08/20 00:54:23;;;;;;;2.80;1.80;;;;;;;;;;5071962;28;20120;-38
2023/08/20 00:56:50;;;;;;;1.92;1.50;;;22.00;78.40;;;;;;5065113;28;20135;-38
2023/08/20 00:59:17;;;;;;;2.25;1.50;;;;;;;;;;5072822;28;20127;-37
2023/08/20 01:01:44;;;;;;;2.00;1.52;;;;;;;;;;5072764;28;20132;-35
2023/08/20 01:04:11;;;;;;;2.85;1.75;;;;;;;;;;5072639;28;20048;-37
2023/08/20 01:06:45;;;;;;;3.55;2.05;;;22.70;86.50;;;;;;5072811;28;20049;-39
2023/08/20 01:09:14;;;;;;;2.90;1.50;;;22.30;71.30;;;;;;5072805;28;20148;-40
2023/08/20 01:11:43;;;;;;;2.30;1.50;;;22.30;71.30;;;;;;5067803;28;20143;-39
2023/08/20 01:14:15;;;;;;;2.92;1.60;;;22.30;71.30;;;;;;5072090;28;20135;-39
2023/08/20 01:16:42;;;;;;;2.35;1.50;;;;;;;;;;5072521;28;20127;-36
2023/08/20 01:19:09;;;;;;;2.30;1.60;;;22.40;87.70;;;;;;5072624;28;20135;-40
2023/08/20 01:21:40;;;;;;;3.25;1.70;;;21.30;86.70;;;;;;5072085;28;20139;-39
2023/08/20 01:24:18;;;;;;;3.60;1.80;;;21.90;79.30;;;;;;5072251;28;20541;-39
2023/08/20 01:27:07;;;;;;;3.45;1.90;;;21.90;87.00;;;;;;5071469;28;20527;-40
2023/08/20 01:29:35;;;;;;;3.72;1.50;;;22.70;87.60;;;;;;5052536;28;20136;-38
2023/08/20 01:32:02;;;;;;;1.95;1.50;;;21.90;79.10;;;;;;5052069;28;20045;-36
2023/08/20 01:34:29;;;;;;;2.85;1.52;;;21.50;76.70;;;;;;5052029;28;20081;-38
2023/08/20 01:36:55;;;;;;;2.80;1.65;;;22.70;88.20;;;;;;5060765;28;20131;-38
2023/08/20 01:39:23;;;;;;;2.40;1.60;;;21.30;86.80;;;;;;5072151;28;20128;-38
2023/08/20 01:41:50;;;;;;;3.65;1.88;;;21.20;86.60;;;;;;5064314;28;20162;-39
2023/08/20 01:44:16;;;;;;;2.97;1.45;;;22.70;87.40;;;;;;5055633;28;20123;-39
2023/08/20 01:46:44;;;;;;;2.92;1.83;;;22.20;71.00;;;;;;5071798;28;20131;-37
2023/08/20 01:49:11;;;;;;;3.83;1.70;;;;;;;;;;5071832;28;20139;-36
2023/08/20 01:51:38;;;;;;;2.40;1.70;;;22.80;87.50;;;;;;5072196;28;20127;-39
2023/08/20 01:54:06;;;;;;;2.97;1.70;;;22.70;74.70;;;;;;5071551;28;20135;-37
2023/08/20 01:56:33;;;;;;;3.33;1.70;;;22.10;87.90;;;;;;5056494;28;20490;-40
2023/08/20 01:59:00;;;;;;;2.67;1.50;;;;;;;;;;5051702;28;20132;-36
2023/08/20 02:01:26;;;;;;;2.88;1.80;;;21.80;86.80;;;;;;5051741;28;20135;-38
2023/08/20 02:03:54;;;;;;;2.22;1.70;;;22.20;70.80;;;;;;5051470;28;20088;-34
2023/08/20 02:06:21;;;;;;;3.00;1.60;;;;;;;;;;5051739;28;20073;-35
2023/08/20 02:08:48;;;;;;;2.20;1.45;;;22.20;87.80;;;;;;5051644;28;20136;-36
2023/08/20 02:11:15;;;;;;;2.42;1.60;;;22.00;75.30;;;;;;5055304;28;20081;-39
2023/08/20 02:13:42;;;;;;;2.80;1.83;;;;;;;;;;5059399;28;20588;-37
2023/08/20 02:16:09;;;;;;;2.70;1.70;;;22.40;87.40;;;;;;5071650;28;20083;-39
2023/08/20 02:18:35;;;;;;;3.17;1.60;;;22.20;87.70;;;;;;5071840;28;20056;-38
2023/08/20 02:21:03;;;;;;;3.60;1.70;;;22.20;70.70;;;;;;5071509;28;20469;-35
2023/08/20 02:23:30;;;;;;;2.45;1.50;;;21.90;77.90;;;;;;5071404;28;20076;-36
2023/08/20 02:25:57;;;;;;;3.65;1.98;;;22.10;86.80;;;;;;5071683;28;20076;-39
2023/08/20 02:28:24;;;;;;;2.85;1.55;;;;;;;;;;5069970;28;20071;-36
2023/08/20 02:30:51;;;;;;;2.00;1.30;;;22.30;87.40;;;;;;5071427;28;20132;-40
2023/08/20 02:33:18;;;;;;;2.67;1.60;;;22.00;86.80;;;;;;5071258;28;20127;-39
2023/08/20 02:35:45;;;;;;;2.67;1.50;;;;;;;;;;5071461;28;20131;-39
2023/08/20 02:38:14;;;;;;;2.47;1.50;;;22.00;87.60;;;;;;5070917;28;20664;-40
2023/08/20 02:40:41;;;;;;;2.97;1.60;;;21.80;70.40;;;;;;5071180;28;20049;-36
2023/08/20 02:43:08;;;;;;;2.83;1.52;;;21.70;86.50;;;;;;5071160;28;20510;-39
2023/08/20 02:45:41;;;;;;;2.47;1.63;;;22.20;71.10;;;;;;5059445;28;20045;-39
2023/08/20 02:48:08;;;;;;;2.67;1.40;;;22.00;86.70;;;;;;5051594;28;20164;-39
2023/08/20 02:50:34;;;;;;;2.50;1.40;;;22.50;87.30;;;;;;5051198;28;20131;-39
2023/08/20 02:53:01;;;;;;;3.20;1.30;;;23.20;75.20;;;;;;5051031;28;20562;-36
2023/08/20 02:55:29;;;;;;;2.75;1.63;;;22.10;86.90;;;;;;5051872;28;20132;-40
2023/08/20 02:57:56;;;;;;;3.20;1.73;;;22.50;73.00;;;;;;5069800;28;20052;-38
2023/08/20 03:00:23;;;;;;;3.15;1.77;;;;;;;;;;5074876;28;20124;-36
2023/08/20 03:02:50;;;;;;;2.28;1.40;;;21.80;86.50;;;;;;5073487;28;20128;-38
2023/08/20 03:05:16;;;;;;;1.70;1.30;;;22.30;87.30;;;;;;5075152;28;20132;-40
2023/08/20 03:07:44;;;;;;;3.33;1.60;;;;;;;;;;5074986;28;20135;-38
2023/08/20 03:10:11;;;;;;;2.03;1.40;;;22.20;86.90;;;;;;5074861;28;20529;-39
2023/08/20 03:12:39;;;;;;;2.17;1.38;;;22.40;71.20;;;;;;5074281;28;20044;-39
2023/08/20 03:15:07;;;;;;;2.25;1.45;;;22.50;81.10;;;;;;5074802;28;20087;-40
2023/08/20 03:17:34;;;;;;;2.60;1.80;;;;;;;;;;5068841;28;20132;-35
2023/08/20 03:20:01;;;;;;;1.85;1.40;;;22.30;81.60;;;;;;5054885;28;20144;-40
2023/08/20 03:22:28;;;;;;;2.60;1.40;;;;;;;;;;5054548;28;20132;-35
2023/08/20 03:24:55;;;;;;;2.55;1.52;;;;;;;;;;5054519;28;20125;-37
2023/08/20 03:27:22;;;;;;;3.05;1.65;;;;;;;;;;5054556;28;20132;-35
2023/08/20 03:29:50;;;;;;;2.55;1.60;;;21.80;87.20;;;;;;5054768;28;20219;-36
2023/08/20 03:32:17;;;;;;;1.63;1.33;;;22.40;86.60;;;;;;5054170;28;20131;-39
2023/08/20 03:34:44;;;;;;;2.65;1.30;;;23.10;87.20;;;;;;5055601;28;20136;-40
2023/08/20 03:37:11;;;;;;;2.22;1.35;;;;;;;;;;5065175;28;20076;-35
2023/08/20 03:39:37;;;;;;;2.40;1.42;;;21.40;78.40;;;;;;5074213;28;20135;-38
2023/08/20 03:42:04;;;;;;;1.88;1.50;;;22.20;87.50;;;;;;5074352;28;20132;-36
2023/08/20 03:44:31;;;;;;;2.50;1.60;;;21.90;86.90;;;;;;5074160;28;20119;-39
2023/08/20 03:46:59;;;;;;;2.85;1.40;;;22.00;70.30;;;;;;5074298;28;20128;-40
2023/08/20 03:49:26;;;;;;;2.47;1.55;;;22.20;87.60;;;;;;5074253;28;20682;-38
2023/08/20 03:51:53;;;;;;;2.47;1.60;;;21.80;76.10;;;;;;5059057;28;20132;-37
2023/08/20 03:54:20;;;;;;;2.42;1.50;;;22.20;86.70;;;;;;5053919;28;20045;-39
2023/08/20 03:56:47;;;;;;;3.72;1.80;;;21.70;73.90;;;;;;5054178;28;20132;-37
2023/08/20 03:59:14;;;;;;;1.85;1.40;;;21.70;86.50;;;;;;5054086;28;20137;-36
2023/08/20 04:01:41;;;;;;;1.73;1.45;;;;;;;;;;5054088;28;20133;-37
2023/08/20 04:04:09;;;;;;;1.80;1.40;;;21.20;86.20;;;;;;5053719;28;20487;-40
2023/08/20 04:06:36;;;;;;;3.28;1.63;;;22.50;87.20;;;;;;5053336;28;20133;-39
2023/08/20 04:09:03;;;;;;;2.88;1.70;;;21.80;86.50;;;;;;5054614;28;20127;-39
2023/08/20 04:11:30;;;;;;;2.20;1.63;;;21.70;73.90;;;;;;5053730;28;20095;-37
2023/08/20 04:13:56;;;;;;;2.92;1.58;;;21.90;86.50;;;;;;5053147;28;20537;-40
2023/08/20 04:16:23;;;;;;;2.03;1.55;;;21.30;86.50;;;;;;5053918;28;20346;-39
2023/08/20 04:18:50;;;;;;;2.78;1.70;;;22.90;77.40;;;;;;5053579;28;20131;-35
2023/08/20 04:21:18;;;;;;;2.80;1.60;;;21.90;86.80;;;;;;5053588;28;20450;-39
2023/08/20 04:23:45;;;;;;;1.83;1.40;;;;;;;;;;5054471;28;20132;-39
2023/08/20 04:26:12;;;;;;;2.85;1.70;;;22.30;87.00;;;;;;5053845;28;20144;-38
2023/08/20 04:28:39;;;;;;;3.45;1.73;;;21.10;86.30;;;;;;5053497;28;20055;-37
2023/08/20 04:31:06;;;;;;;1.90;1.63;;;;;;;;;;5053382;28;20132;-35
2023/08/20 04:33:33;;;;;;;3.08;1.65;;;;;;;;;;5053082;28;20131;-40
2023/08/20 04:36:00;;;;;;;2.38;1.45;;;21.50;86.80;;;;;;5062925;28;20132;-38
2023/08/20 04:38:28;;;;;;;2.42;1.60;;;22.00;73.30;;;;;;5073313;28;20537;-38
2023/08/20 04:40:54;;;;;;;2.53;1.58;;;21.50;80.30;;;;;;5065670;28;20128;-40
2023/08/20 04:43:21;;;;;;;3.03;1.63;;;21.60;86.40;;;;;;5072722;28;20537;-39
2023/08/20 04:45:48;;;;;;;2.58;1.63;;;22.10;87.00;;;;;;5073165;28;20119;-40
2023/08/20 04:48:14;;;;;;;2.65;1.70;;;22.30;73.90;;;;;;5073164;28;20132;-36
2023/08/20 04:50:41;;;;;;;2.60;1.50;;;;;;;;;;5072841;28;20219;-36
2023/08/20 04:53:08;;;;;;;2.55;1.70;;;22.60;87.20;;;;;;5072921;28;20135;-40
2023/08/20 04:55:36;;;;;;;2.30;1.55;;;21.60;81.70;;;;;;5073140;28;20135;-39
2023/08/20 04:58:03;;;;;;;2.60;1.48;;;;;;;;;;5057167;28;20132;-37
2023/08/20 05:00:30;;;;;;;2.20;1.50;;;22.20;86.70;;;;;;5052833;28;20585;-40
2023/08/20 05:02:58;;;;;;;3.63;1.52;;;;;;;;;;5052218;28;20128;-35
2023/08/20 05:05:25;;;;;;;2.67;1.60;;;21.10;87.00;;;;;;5052998;28;20079;-37
2023/08/20 05:07:51;;;;;;;2.33;1.60;;;20.70;80.00;;;;;;5066466;28;20052;-36
2023/08/20 05:10:18;;;;;;;2.75;1.65;;;21.50;86.30;;;;;;5072774;28;20128;-39
2023/08/20 05:12:46;;;;;;;2.95;1.52;;;22.20;86.60;;;;;;5072061;28;20140;-38
2023/08/20 05:15:13;;;;;;;2.53;1.90;;;22.50;87.30;;;;;;5058452;28;20045;-37
2023/08/20 05:17:40;;;;;;;2.85;1.70;;;22.20;87.10;;;;;;5060151;28;20124;-38
2023/08/20 05:20:09;;;;;;;1.70;1.55;;;22.70;72.20;;;;;;5059529;28;20052;-38
2023/08/20 05:22:36;;;;;;;2.90;1.70;;;21.40;86.60;;;;;;5061874;28;20048;-38
2023/08/20 05:25:03;;;;;;;2.28;1.75;;;;;;;;;;5063183;28;20131;-37
2023/08/20 05:27:30;;;;;;;2.97;1.90;;;22.70;73.20;;;;;;5065897;28;20131;-37
2023/08/20 05:29:58;;;;;;;3.10;1.75;;;21.50;86.60;;;;;;5065407;28;20530;-40
2023/08/20 05:32:25;;;;;;;4.70;2.13;;;21.60;86.80;;;;;;5063495;28;20131;-35
2023/08/20 05:34:51;;;;;;;2.38;1.67;;;21.50;86.50;;;;;;5072395;28;20044;-40
2023/08/20 05:37:18;;;;;;;3.17;1.90;;;21.90;74.70;;;;;;5059383;28;20472;-36
2023/08/20 05:39:45;;;;;;;3.00;2.00;;;21.10;86.60;;;;;;5062270;28;20071;-39
2023/08/20 05:42:12;;;;;;;2.47;1.80;;;22.00;86.60;;;;;;5062555;28;20127;-40
2023/08/20 05:44:39;;;;;;;2.95;1.70;;;;;;;;;;5061099;28;20116;-33
2023/08/20 05:47:07;;;;;;;4.28;2.10;;;21.90;86.90;;;;;;5061430;28;20124;-39
2023/08/20 05:49:33;;;;;;;2.92;1.85;;;22.40;87.00;;;;;;5062887;28;20131;-36
2023/08/20 05:52:00;;;;;;;4.57;1.90;;;;;;;;;;5061192;28;20124;-35
2023/08/20 05:54:27;;;;;;;3.13;2.00;;;22.70;87.40;;;;;;5058214;28;20550;-39
2023/08/20 05:56:54;;;;;;;3.70;1.95;;;21.70;86.60;;;;;;5062477;28;20088;-37
2023/08/20 05:59:21;;;;;;;4.25;1.95;;;;;;;;;;5061021;28;20571;-37
2023/08/20 06:01:48;;;;;;;4.35;2.03;;;21.70;86.60;;;;;;5060790;28;20553;-39
2023/08/20 06:04:16;;;;;;;3.33;1.90;;;21.70;86.50;;;;;;5062246;28;20124;-38
2023/08/20 06:06:42;;;;;;;3.50;2.00;;;21.80;87.50;;;;;;5061454;28;20124;-38
2023/08/20 06:09:09;;;;;;;3.88;2.20;;;21.90;77.40;;;;;;5060751;28;20131;-36
2023/08/20 06:11:36;;;;;;;3.75;2.22;;;21.50;74.90;;;;;;5059877;28;20132;-37
2023/08/20 06:14:03;;;;;;;3.85;2.35;;;21.50;86.50;;;;;;5059374;28;20120;-40
2023/08/20 06:16:30;;;;;;;3.38;2.00;;;;;;;;;;5051948;28;20045;-38
2023/08/20 06:18:56;;;;;;;3.83;2.30;;;21.20;86.70;;;;;;5051950;28;20135;-39
2023/08/20 06:21:24;;;;;;;4.40;2.10;;;21.70;70.00;;;;;;5051684;28;20136;-36
2023/08/20 06:23:52;;;;;;;4.30;2.17;;;;;;;;;;5051520;28;20571;-37
2023/08/20 06:26:20;;;;;;;3.17;2.03;;;;;;;;;;5051375;28;20483;-34
2023/08/20 06:28:46;;;;;;;4.35;2.28;;;21.30;86.80;;;;;;5067313;28;20052;-37
2023/08/20 06:31:13;;;;;;;2.97;2.10;;;;;;;;;;5072311;28;20141;-36
2023/08/20 06:33:40;;;;;;;3.85;2.10;;;;;;;;;;5075779;28;20123;-31
2023/08/20 06:36:07;;;;;;;4.40;2.17;;;22.60;87.30;;;;;;5075095;28;20127;-30
2023/08/20 06:38:35;;;;;;;3.47;2.08;;;21.90;70.20;;;;;;5075765;28;20152;-31
2023/08/20 06:41:02;;;;;;;2.97;2.03;;;21.80;77.20;;;;;;5075479;28;20143;-31
2023/08/20 06:43:29;;;;;;;4.43;2.10;;;22.30;87.10;;;;;;5066956;28;20044;-31
2023/08/20 06:45:56;;;;;;;4.32;2.22;;;;;;;;;;5057359;28;20132;-32
2023/08/20 06:48:24;;;;;;;3.72;2.05;;;21.70;86.70;;;;;;5065016;28;20119;-30
2023/08/20 06:50:51;;;;;;;3.83;2.05;;;21.70;86.70;;;;;;5067974;28;20052;-31
2023/08/20 06:53:18;;;;;;;3.00;1.92;;;22.70;87.70;;;;;;5059689;28;20140;-31
2023/08/20 06:55:46;;;;;;;3.60;2.30;;;21.30;72.70;;;;;;5063445;28;20128;-30
2023/08/20 06:58:13;;;;;;;3.45;1.92;;;;;;;;;;5070821;28;20099;-31
2023/08/20 07:00:40;;;;;;;3.83;2.10;;;;;;;;;;5067541;28;20128;-33
2023/08/20 07:03:07;;;;;;;4.38;1.90;;;21.60;72.40;;;;;;5071801;28;20124;-31
2023/08/20 07:05:33;;;;;;;3.08;1.92;;;21.60;87.00;;;;;;5065941;28;20565;-31
2023/08/20 07:08:00;;;;;;;3.03;1.80;;;22.60;87.50;;;;;;5070022;28;20135;-31
2023/08/20 07:10:27;;;;;;;3.08;2.10;;;;;;;;;;5054773;28;20561;-34
2023/08/20 07:12:55;;;;;;;5.63;2.10;;;21.70;87.10;;;;;;5054774;28;20051;-31
2023/08/20 07:15:22;;;;;;;3.92;1.85;;;21.50;87.50;;;;;;5055029;28;20124;-31
2023/08/20 07:17:49;;;;;;;4.75;1.90;;;21.40;87.00;;;;;;5056127;28;20128;-30
2023/08/20 07:20:15;;;;;;;4.78;1.75;;;21.50;81.00;;;;;;5054655;28;20106;-31
2023/08/20 07:22:42;;;;;;;3.63;1.83;;;22.00;87.80;;;;;;5054642;28;20123;-31
2023/08/20 07:25:10;;;;;;;3.95;2.30;;;;;;;;;;5068279;28;20055;-32
2023/08/20 07:27:36;;;;;;;4.60;1.90;;;21.80;87.00;;;;;;5074769;28;20136;-30
2023/08/20 07:30:06;;;;;;;4.32;1.90;;;21.80;70.50;;;;;;5074773;28;20124;-31
2023/08/20 07:32:34;;;;;;;4.43;2.45;;;;;;;;;;5073387;28;20048;-35
2023/08/20 07:35:00;;;;;;;2.95;1.80;;;21.60;87.00;;;;;;5055439;28;20083;-30
2023/08/20 07:37:27;;;;;;;3.65;1.95;;;21.40;87.30;;;;;;5059134;28;20106;-30
2023/08/20 07:39:54;;;;;;;2.95;1.80;;;;;;;;;;5074445;28;20102;-32
2023/08/20 07:42:21;;;;;;;3.85;1.90;;;21.70;87.30;;;;;;5074073;28;20122;-31
2023/08/20 07:44:48;;;;;;;3.72;1.73;;;;;;;;;;5068452;28;20124;-30
2023/08/20 07:47:16;;;;;;;2.53;1.67;;;22.60;87.80;;;;;;5073269;28;20515;-30
2023/08/20 07:49:43;;;;;;;3.42;2.47;;;21.30;87.10;;;;;;5074380;28;20079;-31
2023/08/20 07:52:09;;;;;;;4.85;1.88;;;22.10;88.00;;;;;;5063394;28;20572;-31
2023/08/20 07:54:36;;;;;;;7.50;1.88;;;22.20;73.50;;;;;;5072467;28;20135;-32
2023/08/20 07:57:03;;;;;;;3.22;1.67;;;21.90;88.20;;;;;;5071194;28;20403;-31
2023/08/20 07:59:30;;;;;;;3.40;1.70;;;21.60;87.30;;;;;;5054482;28;20124;-31
2023/08/20 08:01:56;;;;;;;4.68;1.80;;;22.20;74.60;;;;;;5054026;28;20127;-32
2023/08/20 08:04:24;;;;;;;4.43;1.70;;;21.90;71.00;;;;;;5053878;28;20461;-32
2023/08/20 08:06:51;;;;;;;4.25;1.90;;;22.60;88.60;;;;;;5053880;28;20131;-30
2023/08/20 08:09:20;;;;;;;4.15;1.88;;;21.90;87.80;;;;;;5054214;28;20468;-30
2023/08/20 08:11:47;;;;;;;3.20;1.90;;;21.80;81.70;;;;;;5061840;28;20055;-31
2023/08/20 08:14:14;;;;;;;5.32;1.88;;;22.00;88.30;;;;;;5073907;28;20132;-30
2023/08/20 08:16:40;;;;;;;2.97;1.73;;;21.60;77.70;;;;;;5073478;28;20131;-32
2023/08/20 08:19:07;;;;;;;2.88;1.95;;;22.30;76.30;;;;;;5074159;28;20127;-32
2023/08/20 08:21:35;;;;;;;3.78;1.90;;;22.70;88.20;;;;;;5072965;28;20127;-30
2023/08/20 08:24:02;;;;;;;4.78;1.92;;;21.50;87.40;;;;;;5053984;28;20129;-31
2023/08/20 08:26:28;;;;;;;3.80;2.10;;;22.10;88.30;;;;;;5053710;28;20071;-31
2023/08/20 08:28:55;;;;;;;4.22;1.90;;;22.10;76.00;;;;;;5053756;28;20128;-34
2023/08/20 08:31:22;;;;;;;3.75;2.22;;;22.30;87.20;;;;;;5053234;28;20127;-34
2023/08/20 08:33:49;;;;;;;3.63;1.90;;;22.90;87.80;;;;;;5053605;28;20132;-35
2023/08/20 08:36:16;;;;;;;4.07;1.83;;;;;;;;;;5059828;28;20040;-35
2023/08/20 08:38:45;;;;;;;3.13;1.70;;;22.20;70.50;;;;;;5073631;28;20071;-37
2023/08/20 08:41:13;;;;;;;4.28;1.70;;;22.30;70.40;;;;;;5073275;28;20135;-35
2023/08/20 08:43:40;;;;;;;2.78;1.67;;;;;;;;;;5072872;28;20048;-34
2023/08/20 08:46:07;;;;;;;4.05;1.65;;;22.50;86.70;;;;;;5073322;28;20123;-36
2023/08/20 08:48:34;;;;;;;2.78;1.80;;;22.20;74.50;;;;;;5072492;28;20429;-36
2023/08/20 08:51:01;;;;;;;4.60;1.55;;;22.00;86.60;;;;;;5073441;28;20140;-36
2023/08/20 08:53:28;;;;;;;2.92;1.52;;;;;;;;;;5072288;28;20090;-34
2023/08/20 08:55:56;;;;;;;2.25;1.40;;;21.90;86.10;;;;;;5073172;28;20124;-37
2023/08/20 08:58:23;;;;;;;2.42;1.50;;;;;;;;;;5067055;28;20522;-34
2023/08/20 09:00:50;;;;;;;4.05;1.63;;;22.70;85.50;;;;;;5060737;28;20603;-39
2023/08/20 09:03:16;;;;;;;2.53;1.40;;;22.80;82.40;;;;;;5062087;28;20068;-34
2023/08/20 09:05:47;;;;;;;3.15;1.52;;;21.80;84.60;;;;;;5063618;28;20117;-37
2023/08/20 09:08:20;;;;;;;3.60;1.67;;;22.80;68.90;;;;;;5062270;28;20044;-33
2023/08/20 09:10:47;;;;;;;2.92;1.73;;;23.40;77.40;;;;;;5052143;28;20545;-31
2023/08/20 09:13:15;;;;;;;2.80;1.50;;;24.10;85.80;;;;;;5052503;28;20128;-30
2023/08/20 09:15:41;;;;;;;2.85;1.40;;;22.60;84.80;;;;;;5052882;28;20128;-30
2023/08/20 09:18:10;;;;;;;3.10;1.38;;;22.20;83.00;;;;;;5068302;28;20136;-30
2023/08/20 09:20:37;;;;;;;3.53;1.45;;;;;;;;;;5052033;28;20466;-32
2023/08/20 09:23:04;;;;;;;3.05;1.45;;;24.00;85.00;;;;;;5052205;28;20231;-31
2023/08/20 09:25:31;;;;;;;3.42;1.50;;;22.60;73.00;;;;;;5052166;28;20156;-33
2023/08/20 09:27:58;;;;;;;2.38;1.30;;;23.20;84.30;;;;;;5052435;28;20132;-30
2023/08/20 09:30:26;;;;;;;2.03;1.40;;;23.20;68.20;;;;;;5052251;28;20521;-30
2023/08/20 09:33:05;;;;;;;2.28;1.27;;;23.20;82.20;;;;;;5051674;28;20080;-30
2023/08/20 09:35:32;;;;;;;2.85;1.40;;;23.20;84.10;;;;;;5051492;28;20127;-30
2023/08/20 09:38:02;;;;;;;2.90;1.30;;;23.30;84.80;;;;;;5069550;28;20159;-30
2023/08/20 09:40:28;;;;;;;2.65;1.48;;;23.30;84.30;;;;;;5072255;28;20132;-29
2023/08/20 09:42:55;;;;;;;2.03;1.30;;;;;;;;;;5071991;28;20131;-34
2023/08/20 09:45:22;;;;;;;1.80;1.23;;;23.90;84.80;;;;;;5071981;28;20080;-30
2023/08/20 09:47:50;;;;;;;2.85;1.40;;;23.00;84.20;;;;;;5072248;28;20131;-40
2023/08/20 09:50:18;;;;;;;2.63;1.33;;;23.00;84.30;;;;;;5072398;28;20131;-39
2023/08/20 09:52:48;;;;;;;1.95;1.27;;;23.40;83.50;;;;;;5071079;28;20064;-37
2023/08/20 09:55:18;;;;;;;3.90;1.30;;;23.60;83.90;;;;;;5072261;28;20135;-39
2023/08/20 09:57:44;;;;;;;2.13;1.20;;;23.90;84.20;;;;;;5072163;28;20091;-36
2023/08/20 10:00:12;;;;;;;1.85;1.15;;;23.40;83.50;;;;;;5072477;28;20127;-37
2023/08/20 10:02:39;;;;;;;2.30;1.25;;;24.90;83.70;;;;;;5071804;28;20133;-36
2023/08/20 10:05:08;;;;;;;1.40;1.10;;;24.10;84.20;;;;;;5071601;28;20147;-39
2023/08/20 10:07:35;;;;;;;2.15;1.20;;;;;;;;;;5072063;28;20080;-35
2023/08/20 10:10:04;;;;;;;2.80;1.50;;;23.80;67.10;;;;;;5070562;28;20075;-37
2023/08/20 10:12:31;;;;;;;1.33;1.08;;;23.40;82.80;;;;;;5071649;28;20052;-38
2023/08/20 10:14:58;;;;;;;2.13;1.05;;;24.60;83.40;;;;;;5071851;28;20466;-39
2023/08/20 10:17:25;;;;;;;2.08;1.20;;;;;;;;;;5071851;28;20132;-39
2023/08/20 10:19:52;;;;;;;1.98;1.23;;;23.30;82.90;;;;;;5071391;28;20123;-38
2023/08/20 10:22:20;;;;;;;1.80;1.00;;;23.00;82.20;;;;;;5061700;28;20041;-39
2023/08/20 10:24:51;;;;;;;1.80;1.10;;;24.20;83.70;;;;;;5060991;28;20127;-35
2023/08/20 10:27:25;;;;;;;2.05;1.10;;;22.80;82.10;;;;;;5061721;28;20124;-37
2023/08/20 10:29:53;;;;;;;1.35;1.00;;;23.40;82.30;;;;;;5069411;28;20044;-39
2023/08/20 10:32:19;;;;;;;2.47;1.20;;;23.90;82.50;;;;;;5060660;28;20464;-39
2023/08/20 10:34:51;;;;;;;1.77;1.20;;;24.50;83.20;;;;;;5051930;28;20135;-36
2023/08/20 10:37:28;;;;;;;1.40;1.00;;;24.40;82.80;;;;;;5062511;28;20093;-37
2023/08/20 10:39:57;;;;;;;2.78;1.20;;;;;;;;;;5069758;28;20395;-33
2023/08/20 10:42:27;;;;;;;3.20;1.20;;;23.80;77.40;;;;;;5060720;28;20103;-39
2023/08/20 10:44:58;;;;;;;2.38;1.30;;;24.00;69.60;;;;;;5068924;28;20590;-37
2023/08/20 10:47:25;;;;;;;1.73;1.20;;;24.10;82.50;;;;;;5065560;28;20068;-37
2023/08/20 10:49:52;;;;;;;1.80;1.10;;;24.10;82.40;;;;;;5071647;28;20056;-36
2023/08/20 10:52:20;;;;;;;2.00;1.10;;;24.00;82.40;;;;;;5069227;28;20132;-37
2023/08/20 10:54:51;;;;;;;1.42;0.90;;;25.00;82.90;;;;;;5057908;28;20056;-35
2023/08/20 10:57:21;;;;;;;2.00;0.95;;;;;;;;;;5061959;28;20043;-35
2023/08/20 10:59:56;;;;;;;2.60;1.13;;;24.10;66.60;;;;;;5062954;28;20052;-34
2023/08/20 11:02:23;;;;;;;2.22;1.10;;;24.90;82.70;;;;;;5065733;28;20561;-39
2023/08/20 11:04:50;;;;;;;1.88;1.15;;;23.90;68.80;;;;;;5059527;28;20045;-36
2023/08/20 11:07:19;;;;;;;1.70;0.98;;;24.90;66.90;;;;;;5055724;28;20128;-38
2023/08/20 11:09:48;;;;;;;1.83;1.20;;;24.60;68.50;;;;;;5055572;28;20048;-35
2023/08/20 11:12:15;;;;;;;2.25;1.10;;;24.10;82.00;;;;;;5054114;28;20051;-36
2023/08/20 11:14:42;;;;;;;2.40;1.08;;;;;;;;;;5055067;28;20128;-35
2023/08/20 11:17:09;;;;;;;2.42;1.33;;;24.10;82.20;;;;;;5062421;28;20120;-36
2023/08/20 11:19:36;;;;;;;1.40;1.00;;;24.10;79.30;;;;;;5067954;28;20123;-37
2023/08/20 11:22:03;;;;;;;1.58;1.00;;;24.10;82.20;;;;;;5067365;28;20565;-37
2023/08/20 11:24:32;;;;;;;1.70;1.00;;;24.60;82.80;;;;;;5054698;28;20127;-39
2023/08/20 11:26:59;;;;;;;1.58;1.27;;;;;;;;;;5054790;28;20055;-33
2023/08/20 11:29:26;;;;;;;1.25;1.00;;;25.10;83.40;;;;;;5054848;28;20127;-35
2023/08/20 11:31:53;;;;;;;1.35;0.90;;;24.10;82.40;;;;;;5054596;28;20079;-34
2023/08/20 11:34:20;;;;;;;1.33;1.00;;;24.30;82.20;;;;;;5073414;28;20534;-34
2023/08/20 11:36:47;;;;;;;2.45;1.05;;;;;;;;;;5059340;28;20052;-31
2023/08/20 11:39:14;;;;;;;2.53;0.90;;;24.50;82.40;;;;;;5070932;28;20051;-35
2023/08/20 11:41:42;;;;;;;1.40;1.00;;;24.60;69.70;;;;;;5074669;28;20052;-35
2023/08/20 11:44:09;;;;;;;1.70;1.00;;;23.60;71.70;;;;;;5074437;28;20127;-34
2023/08/20 11:46:43;;;;;;;2.70;1.10;;;23.70;81.60;;;;;;5074591;28;20123;-35
2023/08/20 11:49:10;;;;;;;1.60;1.02;;;24.40;66.40;;;;;;5074753;28;20048;-35
2023/08/20 11:51:37;;;;;;;1.30;1.05;;;24.50;82.00;;;;;;5073791;28;20155;-37
2023/08/20 11:54:06;;;;;;;2.20;1.13;;;24.80;82.10;;;;;;5074356;28;20048;-37
2023/08/20 11:56:34;;;;;;;2.47;1.10;;;25.60;82.70;;;;;;5067691;28;20132;-37
2023/08/20 11:59:02;;;;;;;0.98;0.80;;;24.20;81.90;;;;;;5054323;28;20080;-36
2023/08/20 12:01:31;;;;;;;2.67;1.00;;;24.30;81.90;;;;;;5054277;28;20056;-38
2023/08/20 12:04:01;;;;;;;1.60;1.00;;;24.40;66.40;;;;;;5053953;28;20052;-35
2023/08/20 12:06:30;;;;;;;2.10;0.90;;;25.70;72.40;;;;;;5068034;28;20048;-34
2023/08/20 12:08:57;;;;;;;1.55;0.98;;;24.50;82.40;;;;;;5058147;28;20053;-30
2023/08/20 12:11:25;;;;;;;3.10;1.17;;;24.50;82.10;;;;;;5054323;28;20414;-30
2023/08/20 12:13:51;;;;;;;1.77;0.90;;;24.30;81.80;;;;;;5053617;28;20128;-30
2023/08/20 12:16:23;;;;;;;1.60;1.00;;;24.40;71.30;;;;;;5053781;28;20148;-31
2023/08/20 12:18:50;;;;;;;1.38;0.80;;;24.30;82.70;;;;;;5059502;28;20127;-30
2023/08/20 12:21:17;;;;;;;2.40;1.00;;;;;;;;;;5056293;28;20475;-31
2023/08/20 12:23:44;;;;;;;1.65;0.80;;;;;;;;;;5062429;28;20052;-30
2023/08/20 12:26:11;;;;;;;1.75;1.00;;;23.40;81.40;;;;;;5061454;28;20049;-34
2023/08/20 12:28:38;;;;;;;2.28;1.00;;;24.70;83.00;;;;;;5056574;28;20127;-37
2023/08/20 12:31:05;;;;;;;1.13;1.00;;;;;;;;;;5058045;28;20072;-33
2023/08/20 12:33:33;;;;;;;1.90;1.08;;;24.30;82.00;;;;;;5059737;28;20132;-36
2023/08/20 12:36:00;;;;;;;1.00;0.90;;;;;;;;;;5061204;28;20120;-35
2023/08/20 12:38:33;;;;;;;1.15;0.95;;;25.20;67.00;;;;;;5061680;28;20124;-34
2023/08/20 12:41:00;;;;;;;1.10;0.90;;;24.20;82.30;;;;;;5063576;28;20048;-38
2023/08/20 12:43:27;;;;;;;2.83;1.08;;;;;;;;;;5062183;28;20080;-38
2023/08/20 12:45:54;;;;;;;3.53;1.17;;;24.60;83.00;;;;;;5064012;28;20127;-36
2023/08/20 12:48:20;;;;;;;1.90;0.95;;;24.50;82.20;;;;;;5061308;28;20472;-36
2023/08/20 12:50:48;;;;;;;1.55;0.90;;;24.40;66.70;;;;;;5062207;28;20115;-32
2023/08/20 12:53:16;;;;;;;1.00;0.82;;;24.70;83.20;;;;;;5057643;28;20048;-36
2023/08/20 12:55:43;;;;;;;1.30;0.90;;;;;;;;;;5059164;28;20132;-34
2023/08/20 12:58:10;;;;;;;1.25;0.80;;;24.20;77.90;;;;;;5060277;28;20410;-38
2023/08/20 13:00:37;;;;;;;0.98;0.88;;;24.90;83.30;;;;;;5063432;28;20558;-39
2023/08/20 13:03:04;;;;;;;2.17;0.95;;;23.80;67.00;;;;;;5063173;28;20458;-33
2023/08/20 13:05:31;;;;;;;1.60;0.82;;;24.50;82.50;;;;;;5064082;28;20123;-37
2023/08/20 13:08:00;;;;;;;0.88;0.80;;;24.50;67.00;;;;;;5061827;28;20072;-37